createdAt,value
2019-01-04T00:01:48.017Z,103044.58
2019-01-04T00:04:39.589Z,103037.81
2019-01-04T00:07:16.153Z,103027.33
2019-01-04T00:09:47.939Z,103033.09
2019-01-04T00:12:19.562Z,103020.23
2019-01-04T00:14:54.743Z,103015.83
2019-01-04T00:17:26.472Z,103018.20
2019-01-04T00:20:03.834Z,103014.02
2019-01-04T00:22:47.977Z,103027.02
2019-01-04T00:25:19.752Z,103035.63
2019-01-04T00:27:54.757Z,103030.64
2019-01-04T00:30:39.879Z,103039.74
2019-01-04T00:33:15.182Z,103038.34
2019-01-04T00:35:47.493Z,103036.33
2019-01-04T00:38:19.146Z,103032.52
2019-01-04T00:40:51.299Z,103028.24
2019-01-04T00:43:33.071Z,103021.81
2019-01-04T00:46:04.931Z,103017.66
2019-01-04T00:48:36.645Z,103019.73
2019-01-04T00:51:10.325Z,103019.63
2019-01-04T00:53:41.988Z,103017.33
2019-01-04T00:57:02.756Z,103027.58
2019-01-04T01:00:27.799Z,103028.19
2019-01-04T01:04:04.478Z,103023.27
2019-01-04T01:07:36.897Z,103011.38
2019-01-04T01:11:37.648Z,103025.27
2019-01-04T01:15:01.576Z,103028.45
2019-01-04T01:18:44.303Z,103023.31
2019-01-04T01:22:39.312Z,103018.05
2019-01-04T01:26:12.108Z,103014.76
2019-01-04T01:29:41.543Z,103019.68
2019-01-04T01:32:54.527Z,103030.22
2019-01-04T01:36:51.246Z,103036.95
2019-01-04T01:40:21.091Z,103038.11
2019-01-04T01:43:56.004Z,103040.45
2019-01-04T01:47:11.857Z,103045.02
2019-01-04T01:51:08.754Z,103060.37
2019-01-04T01:53:49.014Z,103046.69
2019-01-04T01:56:20.660Z,103052.28
2019-01-04T01:58:52.612Z,103053.71
2019-01-04T02:01:24.122Z,103051.18
2019-01-04T02:03:55.775Z,103057.11
2019-01-04T02:06:42.397Z,103059.80
2019-01-04T02:09:23.343Z,103055.52
2019-01-04T02:12:08.303Z,103056.20
2019-01-04T02:14:45.889Z,103056.14
2019-01-04T02:17:24.579Z,103055.38
2019-01-04T02:19:58.520Z,103050.91
2019-01-04T02:22:31.072Z,103046.04
2019-01-04T02:25:13.571Z,103043.53
2019-01-04T02:27:48.192Z,103034.69
2019-01-04T02:30:19.877Z,103034.03
2019-01-04T02:32:51.342Z,103023.44
2019-01-04T02:35:23.023Z,103034.48
2019-01-04T02:37:55.602Z,103036.78
2019-01-04T02:40:27.226Z,103034.38
2019-01-04T02:42:58.833Z,103033.30
2019-01-04T02:45:31.291Z,103045.64
2019-01-04T02:48:10.249Z,103052.48
2019-01-04T02:50:44.777Z,103045.56
2019-01-04T02:53:18.336Z,103045.70
2019-01-04T02:56:05.689Z,103043.31
2019-01-04T02:58:41.936Z,103040.77
2019-01-04T03:01:16.843Z,103041.74
2019-01-04T03:03:48.421Z,103045.45
2019-01-04T03:06:20.373Z,103047.84
2019-01-04T03:08:52.093Z,103040.19
2019-01-04T03:11:25.393Z,103039.55
2019-01-04T03:13:57.191Z,103047.20
2019-01-04T03:16:29.227Z,103045.73
2019-01-04T03:19:02.278Z,103037.58
2019-01-04T03:21:41.803Z,103032.19
2019-01-04T03:24:14.481Z,103032.16
2019-01-04T03:27:01.480Z,103031.19
2019-01-04T03:29:33.802Z,103032.36
2019-01-04T03:32:13.584Z,103031.29
2019-01-04T03:34:51.723Z,103036.92
2019-01-04T03:37:26.960Z,103028.61
2019-01-04T03:39:58.575Z,103019.02
2019-01-04T03:42:30.507Z,103017.77
2019-01-04T03:45:02.733Z,103016.73
2019-01-04T03:47:34.554Z,103016.24
2019-01-04T03:50:13.158Z,103013.05
2019-01-04T03:52:55.282Z,103013.08
2019-01-04T03:55:27.209Z,103007.94
2019-01-04T03:57:58.900Z,103005.53
2019-01-04T04:00:39.755Z,102995.31
2019-01-04T04:03:15.110Z,103000.88
2019-01-04T04:05:57.996Z,102995.63
2019-01-04T04:08:29.656Z,102988.02
2019-01-04T04:11:01.228Z,102982.05
2019-01-04T04:13:32.818Z,102991.81
2019-01-04T04:16:04.664Z,102986.73
2019-01-04T04:18:39.052Z,102981.31
2019-01-04T04:21:12.446Z,102980.16
2019-01-04T04:23:49.199Z,102983.77
2019-01-04T04:26:21.714Z,102990.03
2019-01-04T04:28:53.721Z,102995.01
2019-01-04T04:31:26.338Z,102995.53
2019-01-04T04:33:57.996Z,102994.92
2019-01-04T04:36:29.611Z,103001.67
2019-01-04T04:39:10.306Z,102986.73
2019-01-04T04:41:46.707Z,102985.17
2019-01-04T04:44:26.883Z,102993.75
2019-01-04T04:46:58.510Z,102986.34
2019-01-04T04:49:30.765Z,102991.39
2019-01-04T04:52:02.399Z,102994.09
2019-01-04T04:54:41.492Z,102993.19
2019-01-04T04:57:17.015Z,102988.02
2019-01-04T04:59:52.337Z,102987.78
2019-01-04T05:02:24.109Z,102985.02
2019-01-04T05:05:06.920Z,102979.08
2019-01-04T05:07:38.743Z,102976.67
2019-01-04T05:10:10.410Z,102971.81
2019-01-04T05:12:49.040Z,102972.93
2019-01-04T05:15:20.711Z,102975.73
2019-01-04T05:17:52.371Z,102987.80
2019-01-04T05:20:24.112Z,102986.34
2019-01-04T05:22:55.861Z,102991.39
2019-01-04T05:25:30.985Z,102984.67
2019-01-04T05:28:04.567Z,102987.21
2019-01-04T05:30:37.275Z,102981.48
2019-01-04T05:33:10.798Z,102975.78
2019-01-04T05:35:42.471Z,102978.91
2019-01-04T05:38:14.141Z,102978.11
2019-01-04T05:40:46.062Z,102982.35
2019-01-04T05:43:17.591Z,102979.39
2019-01-04T05:45:49.069Z,102976.89
2019-01-04T05:48:36.612Z,102980.36
2019-01-04T05:51:09.278Z,102977.89
2019-01-04T05:53:49.955Z,102963.39
2019-01-04T05:56:21.382Z,102960.05
2019-01-04T05:58:52.985Z,102953.16
2019-01-04T06:01:33.271Z,102951.49
2019-01-04T06:04:10.852Z,102947.89
2019-01-04T06:06:49.803Z,102940.30
2019-01-04T06:09:21.687Z,102945.73
2019-01-04T06:11:53.281Z,102946.16
2019-01-04T06:14:37.736Z,102944.06
2019-01-04T06:17:30.784Z,102943.06
2019-01-04T06:20:09.252Z,102949.11
2019-01-04T06:22:40.754Z,102941.11
2019-01-04T06:25:12.941Z,102936.80
2019-01-04T06:27:44.415Z,102937.66
2019-01-04T06:30:16.027Z,102931.36
2019-01-04T06:32:48.599Z,102925.77
2019-01-04T06:35:21.728Z,102930.91
2019-01-04T06:37:53.851Z,102930.02
2019-01-04T06:40:37.443Z,102922.45
2019-01-04T06:43:12.118Z,102919.72
2019-01-04T06:46:11.923Z,102932.03
2019-01-04T06:48:46.855Z,102937.66
2019-01-04T06:51:18.551Z,102947.50
2019-01-04T06:54:33.455Z,102944.58
2019-01-04T06:57:46.555Z,102940.33
2019-01-04T07:00:18.465Z,102948.08
2019-01-04T07:02:50.147Z,102951.49
2019-01-04T07:05:25.078Z,102949.78
